createdAt,value
2022-11-23T00:00:41.833Z,99985.69
2022-11-23T00:03:14.977Z,99988.81
2022-11-23T00:05:41.967Z,99972.81
2022-11-23T00:08:12.150Z,99969.59
2022-11-23T00:10:39.212Z,99979.78
2022-11-23T00:13:06.030Z,99971.38
2022-11-23T00:15:32.892Z,99985.06
2022-11-23T00:18:02.828Z,99975.22
2022-11-23T00:20:29.709Z,99974.59
2022-11-23T00:22:56.587Z,99972.88
2022-11-23T00:25:23.489Z,99977.09
2022-11-23T00:27:50.247Z,99955.91
2022-11-23T00:30:17.430Z,99960.31
2022-11-23T00:32:44.319Z,99957.63
2022-11-23T00:35:11.283Z,99950.19
2022-11-23T00:37:38.139Z,99956.38
2022-11-23T00:40:05.626Z,99964.94
2022-11-23T00:42:37.691Z,99959.75
2022-11-23T00:45:05.344Z,99959.84
2022-11-23T00:47:32.321Z,99959.84
2022-11-23T00:49:59.170Z,99945.06
2022-11-23T00:52:26.062Z,99936.31
2022-11-23T00:54:52.923Z,99933.38
2022-11-23T00:57:19.775Z,99936.13
2022-11-23T00:59:46.587Z,99932.19
2022-11-23T01:02:13.472Z,99921.19
2022-11-23T01:04:40.386Z,99931.09
2022-11-23T01:07:07.285Z,99926.81
2022-11-23T01:09:34.206Z,99913.38
2022-11-23T01:12:01.079Z,99914.72
2022-11-23T01:14:27.890Z,99899.25
2022-11-23T01:16:54.713Z,99903.78
2022-11-23T01:19:21.689Z,99892.34
2022-11-23T01:21:49.746Z,99872.19
2022-11-23T01:24:19.423Z,99880.44
2022-11-23T01:26:50.552Z,99868.44
2022-11-23T01:29:17.413Z,99876.03
2022-11-23T01:31:46.807Z,99876.78
2022-11-23T01:34:17.263Z,99881.25
2022-11-23T01:36:44.998Z,99887.66
2022-11-23T01:39:12.636Z,99887.13
2022-11-23T01:41:41.706Z,99873.81
2022-11-23T01:44:25.022Z,99867.06
2022-11-23T01:46:58.759Z,99877.88
2022-11-23T01:49:27.821Z,99866.78
2022-11-23T01:51:59.697Z,99866.16
2022-11-23T01:54:41.126Z,99868.53
2022-11-23T01:57:13.593Z,99862.03
2022-11-23T01:59:40.603Z,99865.69
2022-11-23T02:02:07.773Z,99856.22
2022-11-23T02:04:40.038Z,99861.47
2022-11-23T02:07:07.676Z,99847.94
2022-11-23T02:09:35.825Z,99833.88
2022-11-23T02:12:03.569Z,99833.94
2022-11-23T02:14:30.469Z,99825.47
2022-11-23T02:17:00.571Z,99818.00
2022-11-23T02:19:47.723Z,99807.66
2022-11-23T02:22:29.544Z,99819.25
2022-11-23T02:24:56.541Z,99817.28
2022-11-23T02:27:26.628Z,99802.88
2022-11-23T02:29:55.379Z,99805.81
2022-11-23T02:32:24.983Z,99800.63
2022-11-23T02:34:56.074Z,99802.00
2022-11-23T02:37:23.462Z,99796.81
2022-11-23T02:39:54.457Z,99790.69
2022-11-23T02:42:21.365Z,99798.84
2022-11-23T02:45:13.135Z,99801.13
2022-11-23T02:47:40.047Z,99798.66
2022-11-23T02:50:09.272Z,99797.25
2022-11-23T02:52:36.115Z,99785.41
2022-11-23T02:55:02.959Z,99779.00
2022-11-23T02:57:29.902Z,99777.09
2022-11-23T02:59:56.731Z,99760.50
2022-11-23T03:02:24.766Z,99776.63
2022-11-23T03:04:54.063Z,99788.41
2022-11-23T03:26:00.866Z,99738.69
2022-11-23T03:28:34.655Z,99729.94
2022-11-23T03:31:01.602Z,99740.00
2022-11-23T03:33:28.759Z,99733.81
2022-11-23T03:35:56.651Z,99738.31
2022-11-23T03:38:27.946Z,99722.53
2022-11-23T03:40:56.630Z,99723.00
2022-11-23T03:43:35.801Z,99720.38
2022-11-23T03:46:02.686Z,99722.25
2022-11-23T03:48:29.952Z,99721.84
2022-11-23T03:50:57.448Z,99711.03
2022-11-23T03:53:24.603Z,99714.69
2022-11-23T03:55:51.657Z,99709.13
2022-11-23T03:58:18.713Z,99714.03
2022-11-23T04:00:46.482Z,99697.38
2022-11-23T04:03:15.654Z,99699.69
2022-11-23T04:06:08.217Z,99701.66
2022-11-23T04:09:07.761Z,99694.94
2022-11-23T04:11:53.596Z,99696.91
2022-11-23T04:14:20.518Z,99702.88
2022-11-23T04:16:48.222Z,99689.47
2022-11-23T04:19:16.078Z,99678.97
2022-11-23T04:21:43.027Z,99680.66
2022-11-23T04:24:10.198Z,99686.91
2022-11-23T04:26:40.509Z,99689.28
2022-11-23T04:29:09.409Z,99686.50
2022-11-23T04:31:39.863Z,99693.44
2022-11-23T04:34:13.432Z,99685.41
2022-11-23T04:36:40.749Z,99695.13
2022-11-23T04:39:12.572Z,99690.06
2022-11-23T04:41:58.177Z,99684.47
2022-11-23T04:44:25.251Z,99679.13
2022-11-23T04:46:58.911Z,99667.06
2022-11-23T04:49:26.128Z,99673.69
2022-11-23T04:51:54.138Z,99668.41
2022-11-23T04:54:26.461Z,99678.16
2022-11-23T04:56:57.558Z,99673.72
2022-11-23T04:59:25.213Z,99662.97
2022-11-23T05:01:52.653Z,99673.72
2022-11-23T05:04:38.479Z,99663.09
2022-11-23T05:07:06.269Z,99660.75
2022-11-23T05:09:35.422Z,99654.50
2022-11-23T05:12:18.975Z,99654.22
2022-11-23T05:14:46.483Z,99648.34
2022-11-23T05:17:18.642Z,99647.16
2022-11-23T05:19:47.463Z,99647.53
2022-11-23T05:22:14.387Z,99645.28
2022-11-23T05:24:42.776Z,99657.59
2022-11-23T05:27:18.776Z,99649.72
2022-11-23T05:29:47.387Z,99647.84
2022-11-23T05:32:14.746Z,99653.03
2022-11-23T05:34:42.878Z,99637.94
2022-11-23T05:37:12.282Z,99643.41
2022-11-23T05:39:49.011Z,99642.53
2022-11-23T05:42:16.413Z,99633.09
2022-11-23T05:44:43.316Z,99641.41
2022-11-23T05:47:19.904Z,99638.03
2022-11-23T05:49:48.276Z,99646.41
2022-11-23T05:52:25.999Z,99640.53
2022-11-23T05:54:54.253Z,99638.63
2022-11-23T05:57:22.595Z,99634.59
2022-11-23T05:59:51.077Z,99621.63
2022-11-23T06:02:22.635Z,99631.84
2022-11-23T06:04:54.197Z,99630.69
2022-11-23T06:07:28.356Z,99623.59
2022-11-23T06:10:12.246Z,99628.63
2022-11-23T06:12:42.318Z,99632.28
2022-11-23T06:15:13.647Z,99629.94
2022-11-23T06:17:41.029Z,99647.03
2022-11-23T06:20:13.649Z,99632.00
2022-11-23T06:22:44.439Z,99627.25
2022-11-23T06:25:12.900Z,99633.53
2022-11-23T06:27:57.409Z,99635.94
2022-11-23T06:30:30.854Z,99636.56
2022-11-23T06:33:04.835Z,99630.75
2022-11-23T06:35:37.486Z,99632.28
2022-11-23T06:38:04.558Z,99631.22
2022-11-23T06:40:32.815Z,99631.28
2022-11-23T06:43:00.820Z,99623.41
2022-11-23T06:45:36.655Z,99620.69
2022-11-23T06:48:07.522Z,99628.81
2022-11-23T06:50:40.634Z,99619.78
2022-11-23T06:53:07.693Z,99626.91
2022-11-23T06:55:43.681Z,99621.47
2022-11-23T06:58:12.626Z,99617.16
2022-11-23T07:00:39.731Z,99604.91
2022-11-23T07:03:18.703Z,99595.41
2022-11-23T07:05:45.783Z,99612.50
2022-11-23T07:08:12.718Z,99608.19
2022-11-23T07:10:40.261Z,99607.97
2022-11-23T07:13:11.014Z,99607.19
2022-11-23T07:15:38.751Z,99609.06
2022-11-23T07:18:07.395Z,99609.81
2022-11-23T07:20:36.079Z,99607.78
2022-11-23T07:23:10.322Z,99603.91
2022-11-23T07:25:39.951Z,99604.28
2022-11-23T07:28:08.251Z,99605.81
2022-11-23T07:30:35.998Z,99601.13
2022-11-23T07:33:06.942Z,99611.22
2022-11-23T07:35:36.366Z,99615.22
2022-11-23T07:38:04.971Z,99614.56
2022-11-23T07:40:31.823Z,99613.38
2022-11-23T07:43:05.316Z,99615.47
2022-11-23T07:45:32.982Z,99609.03
2022-11-23T07:48:03.140Z,99604.22
2022-11-23T07:50:30.262Z,99598.66
2022-11-23T07:52:57.829Z,99594.00
2022-11-23T07:55:24.878Z,99595.25
2022-11-23T07:57:53.570Z,99593.78
2022-11-23T08:00:22.052Z,99586.88
2022-11-23T08:03:19.284Z,99590.88
2022-11-23T08:05:36.524Z,99594.16
2022-11-23T08:08:03.831Z,99597.75
2022-11-23T08:10:32.023Z,99602.38
2022-11-23T08:13:05.465Z,99599.31
2022-11-23T08:15:32.878Z,99599.38
2022-11-23T08:18:02.525Z,99582.81
2022-11-23T08:20:30.638Z,99584.06
2022-11-23T08:22:57.698Z,99582.81
2022-11-23T08:25:29.545Z,99576.22
2022-11-23T08:28:01.294Z,99580.59
2022-11-23T08:30:29.415Z,99559.59
2022-11-23T08:32:56.441Z,99563.56
2022-11-23T08:35:23.980Z,99563.56
2022-11-23T08:37:51.211Z,99570.69
2022-11-23T08:40:24.729Z,99577.09
2022-11-23T08:42:52.423Z,99572.06
2022-11-23T08:45:19.331Z,99571.47
2022-11-23T08:47:46.206Z,99577.41
2022-11-23T08:50:13.317Z,99576.16
2022-11-23T08:52:40.442Z,99557.84
2022-11-23T08:55:07.704Z,99562.97
2022-11-23T08:57:34.690Z,99561.72
2022-11-23T09:00:01.782Z,99558.88
2022-11-23T09:02:28.720Z,99567.94
2022-11-23T09:04:55.555Z,99560.78
2022-11-23T09:07:22.748Z,99556.41
2022-11-23T09:09:49.854Z,99565.16
2022-11-23T09:12:16.914Z,99567.59
2022-11-23T09:14:43.893Z,99567.19
2022-11-23T09:17:11.137Z,99563.69
2022-11-23T09:19:38.249Z,99566.72
2022-11-23T09:22:05.213Z,99554.81
2022-11-23T09:24:32.574Z,99557.16
2022-11-23T09:26:59.850Z,99557.59
2022-11-23T09:29:26.919Z,99555.19
2022-11-23T09:31:53.965Z,99554.81
2022-11-23T09:34:21.022Z,99548.41
2022-11-23T09:36:48.132Z,99532.38
2022-11-23T09:39:15.340Z,99533.25
2022-11-23T09:42:00.816Z,99543.63
2022-11-23T09:44:46.043Z,99539.69
2022-11-23T09:47:13.000Z,99527.91
2022-11-23T09:49:48.385Z,99539.41
2022-11-23T09:52:19.446Z,99534.31
2022-11-23T09:54:49.777Z,99526.28
2022-11-23T09:57:22.014Z,99522.72
2022-11-23T10:00:28.469Z,99532.25
2022-11-23T10:02:55.583Z,99515.16
2022-11-23T10:05:27.543Z,99514.81
2022-11-23T10:08:24.170Z,99515.28
2022-11-23T10:11:20.541Z,99517.56
2022-11-23T10:14:25.972Z,99505.78
2022-11-23T10:16:52.870Z,99509.38
2022-11-23T10:19:46.342Z,99510.91
2022-11-23T10:22:31.529Z,99507.28
2022-11-23T10:25:02.300Z,99501.63
2022-11-23T10:27:30.190Z,99494.56
2022-11-23T10:29:59.372Z,99491.53
2022-11-23T10:32:38.428Z,99498.34
2022-11-23T10:35:31.131Z,99498.69
2022-11-23T10:38:15.191Z,99490.22
2022-11-23T10:40:58.508Z,99491.09
2022-11-23T10:43:29.717Z,99490.66
2022-11-23T10:46:32.198Z,99486.44
2022-11-23T10:49:20.711Z,99486.66
2022-11-23T10:51:57.173Z,99482.28
2022-11-23T10:54:28.224Z,99478.28
2022-11-23T10:56:56.115Z,99480.38
2022-11-23T10:59:41.301Z,99478.00
2022-11-23T11:02:21.820Z,99479.63
2022-11-23T11:04:57.297Z,99473.13
2022-11-23T11:07:30.024Z,99478.28
2022-11-23T11:10:00.157Z,99477.06
2022-11-23T11:12:29.572Z,99468.34
2022-11-23T11:15:12.321Z,99467.75
2022-11-23T11:17:41.195Z,99456.50
2022-11-23T11:20:32.152Z,99462.13
2022-11-23T11:23:02.925Z,99455.06
2022-11-23T11:25:39.722Z,99454.47
2022-11-23T11:28:21.545Z,99462.91
2022-11-23T11:31:06.694Z,99460.59
2022-11-23T11:33:42.433Z,99448.69
2022-11-23T11:36:14.058Z,99440.38
2022-11-23T11:39:01.410Z,99445.69
2022-11-23T11:41:33.714Z,99452.81
2022-11-23T11:44:16.219Z,99450.53
2022-11-23T11:46:49.556Z,99449.31
2022-11-23T11:49:25.313Z,99458.53
2022-11-23T11:52:05.697Z,99449.81
2022-11-23T11:54:44.610Z,99446.41
2022-11-23T11:57:28.327Z,99449.81
2022-11-23T11:59:58.756Z,99438.94
2022-11-23T12:02:28.829Z,99442.78
2022-11-23T12:05:17.964Z,99442.44
2022-11-23T12:08:09.524Z,99446.72
2022-11-23T12:10:52.995Z,99456.22
2022-11-23T12:13:22.858Z,99467.78
2022-11-23T12:16:18.408Z,99462.97
2022-11-23T12:19:13.475Z,99462.53
2022-11-23T12:21:56.184Z,99468.88
2022-11-23T12:24:53.589Z,99470.03
2022-11-23T12:27:48.953Z,99457.56
2022-11-23T12:30:26.199Z,99473.88
2022-11-23T12:33:30.679Z,99467.22
2022-11-23T12:36:34.917Z,99478.97
2022-11-23T12:39:43.647Z,99473.00
2022-11-23T12:42:16.733Z,99475.06
2022-11-23T12:44:49.837Z,99470.06
2022-11-23T12:47:32.678Z,99479.59
2022-11-23T12:50:13.171Z,99478.44
2022-11-23T12:52:47.253Z,99481.63
2022-11-23T12:55:52.138Z,99485.00
2022-11-23T12:58:34.494Z,99490.97
2022-11-23T13:01:12.897Z,99467.34
2022-11-23T13:04:10.230Z,99475.28
2022-11-23T13:06:40.074Z,99472.03
2022-11-23T13:09:19.064Z,99466.16
2022-11-23T13:12:05.445Z,99470.59
2022-11-23T13:14:46.270Z,99471.22
2022-11-23T13:17:35.599Z,99478.31
2022-11-23T13:20:25.146Z,99471.41
2022-11-23T13:22:52.827Z,99478.44
2022-11-23T13:25:23.421Z,99476.56
2022-11-23T13:27:50.243Z,99472.94
2022-11-23T13:31:13.277Z,99485.34
2022-11-23T13:33:32.848Z,99494.31
2022-11-23T13:36:09.418Z,99497.69
2022-11-23T13:38:44.144Z,99500.25
2022-11-23T13:41:39.566Z,99501.41
2022-11-23T13:44:18.731Z,99505.28
2022-11-23T13:46:57.942Z,99501.94
2022-11-23T13:49:49.698Z,99511.91
2022-11-23T13:52:22.603Z,99506.44
2022-11-23T13:55:09.237Z,99506.31
2022-11-23T13:57:41.642Z,99508.28
2022-11-23T14:00:45.667Z,99501.34
2022-11-23T14:03:53.815Z,99515.78
2022-11-23T14:06:42.785Z,99508.94
2022-11-23T14:09:13.987Z,99508.19
2022-11-23T14:12:12.743Z,99510.63
2022-11-23T14:15:06.641Z,99522.69
2022-11-23T14:17:42.664Z,99518.03
2022-11-23T14:20:09.636Z,99521.31
2022-11-23T14:23:06.571Z,99516.59
2022-11-23T14:25:51.522Z,99506.53
2022-11-23T14:28:24.176Z,99516.13
2022-11-23T14:31:07.001Z,99512.63
2022-11-23T14:34:03.442Z,99510.19
2022-11-23T14:37:07.324Z,99512.06
2022-11-23T14:39:55.653Z,99516.66
2022-11-23T14:42:25.914Z,99508.34
2022-11-23T14:44:54.194Z,99507.91
2022-11-23T14:47:31.811Z,99499.25
2022-11-23T14:49:59.069Z,99505.41
2022-11-23T14:52:33.231Z,99520.53
2022-11-23T14:55:05.084Z,99513.16
2022-11-23T14:57:43.440Z,99514.69
2022-11-23T15:00:36.210Z,99520.66
2022-11-23T15:03:34.407Z,99520.75
2022-11-23T15:06:22.486Z,99525.59
2022-11-23T15:09:02.433Z,99523.22
2022-11-23T15:27:51.119Z,99535.06
2022-11-23T15:30:27.204Z,99524.53
2022-11-23T15:33:05.694Z,99521.09
2022-11-23T15:35:38.392Z,99524.59
2022-11-23T15:38:17.747Z,99523.66
2022-11-23T15:40:49.883Z,99520.81
2022-11-23T15:43:19.830Z,99522.13
2022-11-23T15:45:47.013Z,99526.22
2022-11-23T15:48:21.905Z,99518.84
2022-11-23T15:51:03.904Z,99519.72
2022-11-23T15:53:36.565Z,99515.50
2022-11-23T15:56:06.037Z,99521.47
2022-11-23T15:58:35.362Z,99518.28
2022-11-23T16:01:12.474Z,99514.41
2022-11-23T16:03:53.779Z,99514.16
2022-11-23T16:06:28.287Z,99528.09
2022-11-23T16:08:55.597Z,99526.91
2022-11-23T16:11:35.488Z,99538.31
2022-11-23T16:14:17.754Z,99541.84
2022-11-23T16:16:58.402Z,99549.03
2022-11-23T16:19:29.253Z,99547.13
2022-11-23T16:22:02.746Z,99562.81
2022-11-23T16:24:33.656Z,99563.56
2022-11-23T16:27:02.667Z,99560.09
2022-11-23T16:29:36.796Z,99574.41
2022-11-23T16:32:07.227Z,99572.63
2022-11-23T16:34:34.760Z,99577.81
2022-11-23T16:37:04.025Z,99573.22
2022-11-23T16:39:31.028Z,99580.31
2022-11-23T16:41:58.208Z,99581.13
2022-11-23T16:44:25.147Z,99582.09
2022-11-23T16:46:52.112Z,99585.75
2022-11-23T16:49:22.333Z,99586.03
2022-11-23T16:51:56.990Z,99590.19
2022-11-23T16:54:25.533Z,99589.38
2022-11-23T16:56:53.304Z,99586.84
2022-11-23T16:59:20.349Z,99592.97
2022-11-23T17:01:56.658Z,99580.19
2022-11-23T17:04:24.390Z,99579.44
2022-11-23T17:06:51.315Z,99579.09
2022-11-23T17:09:18.223Z,99577.00
2022-11-23T17:11:47.699Z,99586.91
2022-11-23T17:14:18.800Z,99581.34
2022-11-23T17:16:47.015Z,99578.28
2022-11-23T17:19:18.561Z,99581.81
2022-11-23T17:21:45.567Z,99584.06
2022-11-23T17:24:13.934Z,99592.22
2022-11-23T17:26:45.337Z,99593.38
2022-11-23T17:29:19.617Z,99596.13
2022-11-23T17:31:47.661Z,99591.47
2022-11-23T17:34:15.514Z,99589.44
2022-11-23T17:36:44.362Z,99590.59
2022-11-23T17:39:23.123Z,99603.09
2022-11-23T17:41:50.132Z,99601.69
2022-11-23T17:44:17.759Z,99599.19
2022-11-23T17:46:45.797Z,99601.50
2022-11-23T17:49:16.309Z,99610.44
2022-11-23T17:51:43.503Z,99616.63
2022-11-23T17:54:10.541Z,99602.38
2022-11-23T17:56:38.505Z,99610.97
2022-11-23T17:59:06.784Z,99606.16
2022-11-23T18:01:33.661Z,99612.84
2022-11-23T18:04:04.949Z,99607.69
2022-11-23T18:06:32.932Z,99607.97
2022-11-23T18:08:59.766Z,99614.13
2022-11-23T18:11:28.637Z,99618.09
2022-11-23T18:13:55.556Z,99621.56
2022-11-23T18:16:23.691Z,99621.50
2022-11-23T18:18:51.180Z,99625.47
2022-11-23T18:21:18.565Z,99621.50
2022-11-23T18:23:45.424Z,99622.84
2022-11-23T18:26:17.135Z,99622.63
2022-11-23T18:28:44.238Z,99615.19
2022-11-23T18:31:11.265Z,99622.34
2022-11-23T18:33:38.593Z,99630.34
2022-11-23T18:36:06.039Z,99625.59
2022-11-23T18:38:34.048Z,99627.28
2022-11-23T18:41:01.101Z,99625.00
2022-11-23T18:43:28.426Z,99636.75
2022-11-23T18:45:55.414Z,99632.38
2022-11-23T18:48:22.278Z,99631.06
2022-11-23T18:50:49.169Z,99633.78
2022-11-23T18:53:16.206Z,99634.94
2022-11-23T18:55:43.077Z,99639.81
2022-11-23T18:58:10.544Z,99634.06
2022-11-23T19:00:37.496Z,99635.44
2022-11-23T19:03:04.839Z,99642.03
2022-11-23T19:05:34.580Z,99650.50
2022-11-23T19:08:04.261Z,99644.47
2022-11-23T19:10:36.495Z,99646.22
2022-11-23T19:13:05.962Z,99650.06
2022-11-23T19:15:33.792Z,99646.28
2022-11-23T19:18:01.238Z,99641.59
2022-11-23T19:20:29.089Z,99644.47
2022-11-23T19:22:56.470Z,99642.56
2022-11-23T19:25:23.474Z,99648.75
2022-11-23T19:27:51.521Z,99646.94
2022-11-23T19:30:19.005Z,99647.31
2022-11-23T19:32:45.931Z,99645.19
2022-11-23T19:35:13.988Z,99641.38
2022-11-23T19:37:40.910Z,99636.38
2022-11-23T19:40:08.902Z,99640.56
2022-11-23T19:42:36.286Z,99644.28
2022-11-23T19:45:04.643Z,99637.56
2022-11-23T19:47:34.406Z,99640.78
2022-11-23T19:50:01.279Z,99642.88
2022-11-23T19:52:48.408Z,99640.94
2022-11-23T19:55:16.618Z,99638.69
2022-11-23T19:57:43.627Z,99648.91
2022-11-23T20:00:10.990Z,99637.69
2022-11-23T20:02:39.018Z,99628.94
2022-11-23T20:05:06.833Z,99622.97
2022-11-23T20:07:33.835Z,99633.03
2022-11-23T20:10:00.810Z,99623.56
2022-11-23T20:12:27.698Z,99631.06
2022-11-23T20:14:54.550Z,99630.25
2022-11-23T20:17:21.379Z,99628.53
2022-11-23T20:19:48.446Z,99626.25
2022-11-23T20:22:15.341Z,99631.00
2022-11-23T20:24:42.196Z,99642.97
2022-11-23T20:27:09.070Z,99648.09
2022-11-23T20:29:36.204Z,99651.47
2022-11-23T20:32:03.224Z,99650.78
2022-11-23T20:34:30.206Z,99654.97
2022-11-23T20:36:57.001Z,99660.06
2022-11-23T20:39:23.830Z,99657.88
2022-11-23T20:41:50.901Z,99664.00
2022-11-23T20:44:17.877Z,99659.38
2022-11-23T20:47:01.097Z,99662.97
2022-11-23T20:49:30.338Z,99656.19
2022-11-23T20:51:58.343Z,99671.41
2022-11-23T20:54:25.156Z,99664.38
2022-11-23T20:56:52.280Z,99660.28
2022-11-23T20:59:19.967Z,99661.34
2022-11-23T21:01:46.975Z,99669.25
2022-11-23T21:04:13.949Z,99663.66
2022-11-23T21:06:40.796Z,99651.16
2022-11-23T21:09:09.181Z,99656.56
2022-11-23T21:11:55.233Z,99655.19
2022-11-23T21:14:25.525Z,99652.03
2022-11-23T21:16:58.729Z,99658.63
2022-11-23T21:19:31.103Z,99649.88
2022-11-23T21:21:59.793Z,99650.69
2022-11-23T21:24:28.370Z,99659.34
2022-11-23T21:26:55.308Z,99645.06
2022-11-23T21:29:22.385Z,99644.63
2022-11-23T21:31:50.344Z,99646.31
2022-11-23T21:34:35.766Z,99644.00
2022-11-23T21:37:02.732Z,99645.75
2022-11-23T21:39:33.174Z,99640.91
2022-11-23T21:42:00.183Z,99649.53
2022-11-23T21:44:27.146Z,99650.16
2022-11-23T21:46:54.544Z,99638.53
2022-11-23T21:49:21.797Z,99641.59
2022-11-23T21:51:49.098Z,99641.06
2022-11-23T21:54:16.377Z,99630.91
2022-11-23T21:56:45.279Z,99628.50
2022-11-23T21:59:12.860Z,99628.88
2022-11-23T22:01:40.491Z,99633.72
2022-11-23T22:04:10.633Z,99622.44
2022-11-23T22:06:39.441Z,99636.19
2022-11-23T22:09:09.320Z,99629.34
2022-11-23T22:11:39.596Z,99618.28
2022-11-23T22:14:11.885Z,99628.16
2022-11-23T22:16:47.350Z,99623.81
2022-11-23T22:19:15.948Z,99626.03
2022-11-23T22:21:44.522Z,99627.03
2022-11-23T22:24:13.501Z,99623.78
2022-11-23T22:26:40.705Z,99625.22
2022-11-23T22:29:07.861Z,99639.50
2022-11-23T22:31:35.840Z,99642.09
2022-11-23T22:34:05.665Z,99640.03
2022-11-23T22:36:32.905Z,99644.25
2022-11-23T22:39:02.567Z,99649.25
2022-11-23T22:41:33.394Z,99646.66
2022-11-23T22:44:00.343Z,99644.03
2022-11-23T22:46:27.245Z,99649.34
2022-11-23T22:48:54.298Z,99652.19
2022-11-23T22:51:23.193Z,99644.94
2022-11-23T22:53:57.599Z,99645.38
2022-11-23T22:56:24.857Z,99629.22
2022-11-23T22:58:52.028Z,99641.63
2022-11-23T23:01:21.815Z,99636.16
2022-11-23T23:03:48.812Z,99636.66
2022-11-23T23:06:20.602Z,99626.53
2022-11-23T23:08:51.950Z,99632.81
2022-11-23T23:11:18.991Z,99632.72
2022-11-23T23:13:45.843Z,99644.03
2022-11-23T23:16:13.830Z,99641.53
2022-11-23T23:18:42.011Z,99641.78
2022-11-23T23:21:11.882Z,99643.63
2022-11-23T23:23:39.699Z,99646.28
2022-11-23T23:26:06.971Z,99645.81
2022-11-23T23:28:35.241Z,99639.50
2022-11-23T23:31:07.853Z,99642.63
2022-11-23T23:33:34.896Z,99648.69
2022-11-23T23:36:05.223Z,99653.06
2022-11-23T23:38:32.970Z,99656.44
2022-11-23T23:41:00.824Z,99659.53
2022-11-23T23:43:28.917Z,99659.53
2022-11-23T23:46:00.760Z,99654.00
2022-11-23T23:48:33.698Z,99656.78
2022-11-23T23:51:15.704Z,99664.25
2022-11-23T23:53:42.942Z,99662.28
2022-11-23T23:56:17.085Z,99660.56
2022-11-23T23:58:44.433Z,99660.34
